Nearby METAR Reports

This page may be slow to load as it queries the National Weather Service for data.

KBIS - Bismarck, North Dakota, USA
Distance from station: S 10mi, 15km
Updated: Sat, 04-Apr-2020 9:52pm CDT
Clear
Clear
 Wind from E
Wind: E 6 mph , 9 km/h
Temperature: 32°F , 0°C
Wind Chill: 26°F , -3°C
Dew Point: 28°F , -2°C
Humidity: 87%
Barometer: 29.96 inHg , 1014.6 hPa
Clouds: Clear
Visibility: 10 miles , 16 km
2020/04/05 02:52 KBIS 050252Z 09005KT 10SM CLR 00/M02 A2996 RMK AO2 SLP169 T00001022 53006
KDIK - Dickinson, North Dakota, USA
Distance from station: W 95mi, 154km
Updated: Sat, 04-Apr-2020 9:56pm CDT
Clear
Clear
 Wind from NW
Wind: NW 8 mph , 13 km/h
Temperature: 32°F , 0°C
Wind Chill: 25°F , -4°C
Dew Point: 21°F , -6°C
Humidity: 64%
Barometer: 29.89 inHg , 1012.2 hPa
Clouds: Clear
Visibility: 10 miles , 16 km
2020/04/05 02:56 KDIK 050256Z AUTO 32007KT 10SM CLR 00/M06 A2989 RMK AO2 SLP151 T00001061 53019
 
KXWA - Williston, North Dakota, USA
Distance from station: NNW 2mi, 2km
Updated: Sat, 04-Apr-2020 9:51pm CDT
Clear
Clear
 Wind from NNW
Wind: NNW 10 mph , 17 km/h
Temperature: 28°F , -2°C
Wind Chill: 19°F , -7°C
Dew Point: 21°F , -6°C
Humidity: 74%
Barometer: 29.90 inHg , 1012.5 hPa
Clouds: Clear
Visibility: 10 miles , 16 km
2020/04/05 02:51 KXWA 050251Z AUTO 34009KT 10SM CLR M02/M06 A2990 RMK AO2 SLP000 T10171056 51017 TSNO
KFAR - Fargo, North Dakota, USA
Distance from station: NNW 4mi, 7km
Updated: Sat, 04-Apr-2020 9:53pm CDT
Overcast
Overcast
 Wind from SE
Wind: SE 5 mph , 7 km/h
Temperature: 28°F , -2°C
Wind Chill: 22°F , -6°C
Dew Point: 23°F , -5°C
Humidity: 80%
Barometer: 30.09 inHg , 1019 hPa
Clouds: Overcast
Visibility: 10 miles , 16 km
Cloud details: Overcast 9000 ft
2020/04/05 02:53 KFAR 050253Z 14004KT 10SM OVC090 M02/M05 A3009 RMK AO2 SLP205 T10171050 50002
 
KGFK - Grand Forks, North Dakota, USA
Distance from station: NNW 76mi, 123km
Updated: Sat, 04-Apr-2020 9:53pm CDT
Partly cloudy
Partly cloudy
 Wind from calm
Wind: Calm
Temperature: 14°F , -10°C
Dew Point: 10°F , -12°C
Humidity: 85%
Barometer: 30.10 inHg , 1019.3 hPa
Clouds: Partly cloudy
Visibility: 10 miles , 16 km
Cloud details: Partly cloudy 12000 ft
2020/04/05 02:53 KGFK 050253Z 00000KT 10SM SCT120 M10/M12 A3010 RMK AO2 SLP215 T11001117 55003
KMOT - Minot, North Dakota, USA
Distance from station: E 109mi, 175km
Updated: Sat, 04-Apr-2020 10:03pm CDT
Light snow, Mist, Overcast
Light snow, Mist, Overcast
 Wind from SE
Wind: SE 7 mph , 11 km/h
Temperature: 34°F , 1°C
Wind Chill: 28°F , -2°C
Dew Point: 28°F , -2°C
Humidity: 81%
Barometer: 29.93 inHg , 1013.5 hPa
Summary: Light snow, Mist
Clouds: Overcast
Visibility: 2 miles , 3 km
Cloud details: Partly cloudy 2000 ft
Mostly cloudy 2900 ft
Overcast 5500 ft
2020/04/05 03:03 KMOT 050303Z AUTO 13006KT 2SM -SN BR SCT020 BKN029 OVC055 01/M02 A2993 RMK AO2 P0000 T00061017